Time;durP1;ratioP1;P1;durP2;ratioP2;P2;SDS_P1;SDS_P2;PMS_P1;PMS_P2;Temp;Humidity;BMP_temperature;BMP_pressure;BME280_temperature;BME280_humidity;BME280_pressure;Samples;Min_cycle;Max_cycle;Signal;HPM_P1;HPM_P2
2023/07/06 00:01:04;;;;;;;6.72;2.90;;;;;;;17.05;100.00;100144.16;5060032;28;20037;-69
2023/07/06 00:03:33;;;;;;;7.70;2.97;;;;;;;16.98;100.00;100148.13;5062164;28;20067;-70
2023/07/06 00:05:59;;;;;;;7.45;3.10;;;;;;;16.93;100.00;100139.94;5044495;28;20062;-70
2023/07/06 00:08:26;;;;;;;10.02;3.60;;;;;;;16.86;100.00;100137.44;5043490;28;20033;-70
2023/07/06 00:10:53;;;;;;;6.07;3.28;;;;;;;16.99;100.00;100141.63;5041732;28;20033;-70
2023/07/06 00:13:22;;;;;;;6.78;3.40;;;;;;;17.10;100.00;100132.47;5060802;28;20025;-70
2023/07/06 00:15:48;;;;;;;8.98;3.42;;;;;;;17.06;100.00;100129.47;5060407;28;20021;-70
2023/07/06 00:18:15;;;;;;;13.15;3.78;;;;;;;17.00;100.00;100130.50;5045490;28;20136;-70
2023/07/06 00:20:41;;;;;;;9.50;3.50;;;;;;;16.96;100.00;100107.63;5062030;28;20027;-70
2023/07/06 00:23:11;;;;;;;7.88;3.58;;;;;;;17.02;100.00;100127.50;5045370;28;20052;-71
2023/07/06 00:25:38;;;;;;;7.70;3.75;;;;;;;17.01;100.00;100112.28;5045814;28;20041;-70
2023/07/06 00:28:04;;;;;;;7.70;3.63;;;;;;;17.12;100.00;100122.19;5062877;28;20084;-71
2023/07/06 00:31:21;;;;;;;8.07;3.40;;;;;;;16.82;100.00;100128.97;5060364;28;20033;-70
2023/07/06 00:33:18;;;;;;;9.75;3.78;;;;;;;16.84;100.00;100113.22;5042978;28;20044;-71
2023/07/06 00:35:44;;;;;;;8.90;3.50;;;;;;;16.80;100.00;100117.53;5044512;28;20033;-70
2023/07/06 00:38:14;;;;;;;9.70;3.83;;;;;;;16.86;100.00;100112.97;5060401;28;20078;-71
2023/07/06 00:40:42;;;;;;;8.60;3.58;;;;;;;16.84;100.00;100102.34;5060513;28;20108;-70
2023/07/06 00:43:12;;;;;;;7.57;3.87;;;;;;;16.83;100.00;100108.88;4997454;28;1327203;-71
2023/07/06 00:45:38;;;;;;;7.80;3.50;;;;;;;16.71;100.00;100091.88;5056826;28;20045;-70
2023/07/06 00:48:10;;;;;;;6.05;3.20;;;;;;;16.82;100.00;100100.97;5045387;28;20043;-70
2023/07/06 00:50:36;;;;;;;8.90;3.15;;;;;;;16.87;100.00;100092.88;5062980;28;20047;-70
2023/07/06 00:53:07;;;;;;;8.38;3.40;;;;;;;16.91;100.00;100080.41;5045277;28;20025;-70
2023/07/06 00:55:36;;;;;;;9.63;3.50;;;;;;;16.94;100.00;100092.66;5063234;28;20025;-70
2023/07/06 00:58:10;;;;;;;8.00;3.47;;;;;;;17.02;100.00;100101.16;5043978;28;20062;-70
2023/07/06 01:00:37;;;;;;;6.50;3.35;;;;;;;16.96;100.00;100091.34;5062179;28;20032;-70
2023/07/06 01:03:03;;;;;;;9.07;3.60;;;;;;;16.83;100.00;100091.75;5044079;28;20040;-70
2023/07/06 01:05:31;;;;;;;7.60;3.13;;;;;;;16.48;100.00;100067.75;5068042;28;20033;-70
2023/07/06 01:08:04;;;;;;;9.98;3.50;;;;;;;16.80;100.00;100076.78;5071424;28;20032;-70
2023/07/06 01:10:31;;;;;;;8.63;3.00;;;;;;;16.76;100.00;100069.41;5065595;28;20020;-70
2023/07/06 01:12:59;;;;;;;8.30;3.20;;;;;;;16.51;100.00;100070.75;5062648;28;20040;-70
2023/07/06 01:15:32;;;;;;;8.02;2.90;;;;;;;16.66;100.00;100057.34;5061210;28;20107;-70
2023/07/06 01:18:16;;;;;;;5.97;2.70;;;;;;;16.68;100.00;100052.44;5042047;28;20040;-70
2023/07/06 01:20:53;;;;;;;7.70;2.70;;;;;;;16.61;100.00;100053.75;5039922;28;20108;-70
2023/07/06 01:23:29;;;;;;;6.07;2.85;;;;;;;16.52;100.00;100037.09;5061353;28;20024;-71
2023/07/06 01:26:17;;;;;;;5.07;2.38;;;;;;;16.55;100.00;100035.75;5043295;28;20115;-70
2023/07/06 01:29:14;;;;;;;11.75;2.97;;;;;;;16.52;100.00;100025.41;5044632;28;20029;-70
2023/07/06 01:32:05;;;;;;;5.85;2.58;;;;;;;16.56;100.00;100023.84;5042384;28;20032;-70
2023/07/06 01:34:43;;;;;;;13.75;2.85;;;;;;;16.66;100.00;100021.22;5059405;28;20028;-70
2023/07/06 01:37:18;;;;;;;6.07;2.67;;;;;;;16.72;100.00;100017.47;5062241;28;20368;-70
2023/07/06 01:39:44;;;;;;;5.78;2.50;;;;;;;16.62;100.00;100020.06;5061479;28;20032;-70
2023/07/06 01:42:12;;;;;;;8.18;2.47;;;;;;;16.69;100.00;100007.13;5044310;28;20025;-71
2023/07/06 01:44:45;;;;;;;6.68;2.40;;;;;;;16.52;100.00;99995.53;5043021;28;20482;-71
2023/07/06 01:47:11;;;;;;;5.40;2.17;;;;;;;16.57;100.00;100001.84;5042064;28;20483;-71
2023/07/06 01:49:37;;;;;;;4.85;2.17;;;;;;;16.67;100.00;99996.50;5060951;28;20120;-70
2023/07/06 01:52:24;;;;;;;7.05;2.80;;;;;;;16.66;100.00;99985.91;5043612;28;20048;-70
2023/07/06 01:55:13;;;;;;;6.35;2.20;;;;;;;16.42;100.00;99956.38;5043684;28;20041;-70
2023/07/06 01:57:50;;;;;;;7.50;1.90;;;;;;;16.39;100.00;99975.91;5060798;28;20244;-71
2023/07/06 02:00:18;;;;;;;6.90;2.10;;;;;;;16.32;100.00;99977.16;5043252;28;20029;-70
2023/07/06 02:02:48;;;;;;;5.57;2.05;;;;;;;16.39;100.00;99962.31;5042861;28;20032;-71
2023/07/06 02:05:15;;;;;;;4.03;1.73;;;;;;;16.28;100.00;99949.72;5060724;28;20025;-71
2023/07/06 02:07:42;;;;;;;6.93;1.83;;;;;;;16.24;100.00;99953.22;5059044;28;20025;-71
2023/07/06 02:10:08;;;;;;;4.72;2.25;;;;;;;16.34;100.00;99947.88;5055743;28;20101;-71
2023/07/06 02:12:33;;;;;;;7.07;1.98;;;;;;;16.26;100.00;99946.47;5042173;28;20468;-70
2023/07/06 02:14:58;;;;;;;7.53;1.58;;;;;;;15.90;100.00;99916.25;5061790;28;20025;-70
2023/07/06 02:17:24;;;;;;;10.68;1.90;;;;;;;15.87;100.00;99932.22;5063154;28;20025;-70
2023/07/06 02:19:50;;;;;;;7.97;1.50;;;;;;;15.91;100.00;99917.88;5057185;28;20029;-70
2023/07/06 02:22:17;;;;;;;3.70;1.60;;;;;;;15.97;100.00;99916.06;5042013;28;20116;-70
2023/07/06 02:24:43;;;;;;;5.25;1.80;;;;;;;16.09;100.00;99921.31;5043108;28;20483;-69
2023/07/06 02:27:10;;;;;;;4.75;1.45;;;;;;;15.72;100.00;99919.31;5043248;28;20240;-70
2023/07/06 02:29:36;;;;;;;5.22;1.50;;;;;;;16.12;100.00;99908.03;5041957;28;20120;-70
2023/07/06 02:32:02;;;;;;;4.60;1.38;;;;;;;16.16;100.00;99903.75;5041640;28;20043;-70
2023/07/06 02:34:28;;;;;;;6.63;1.45;;;;;;;16.02;100.00;99894.38;5058741;28;20610;-70
2023/07/06 02:36:55;;;;;;;5.05;1.88;;;;;;;16.10;100.00;99901.25;5060557;28;20025;-70
2023/07/06 02:39:24;;;;;;;6.03;1.70;;;;;;;15.99;100.00;99862.31;5043243;28;20352;-70
2023/07/06 02:41:54;;;;;;;7.82;1.63;;;;;;;16.06;100.00;99886.53;5058848;28;20090;-70
2023/07/06 02:44:20;;;;;;;4.43;1.58;;;;;;;15.77;100.00;99875.97;5058408;28;20056;-69
2023/07/06 02:46:47;;;;;;;6.25;1.75;;;;;;;15.62;100.00;99870.34;5057289;28;20044;-70
2023/07/06 02:49:13;;;;;;;2.70;1.42;;;;;;;15.81;100.00;99862.72;5038239;28;20032;-70
2023/07/06 02:51:39;;;;;;;7.50;1.95;;;;;;;15.80;100.00;99847.53;5058032;28;20507;-69
2023/07/06 02:54:04;;;;;;;5.03;1.50;;;;;;;15.90;100.00;99834.88;5039666;28;20120;-71
2023/07/06 02:56:30;;;;;;;4.82;1.40;;;;;;;15.51;100.00;99805.16;5058921;28;20048;-70
2023/07/06 02:58:55;;;;;;;3.63;1.48;;;;;;;15.56;100.00;99801.69;5058752;28;20029;-70
2023/07/06 03:01:21;;;;;;;6.55;1.38;;;;;;;15.68;100.00;99810.50;5041661;28;20050;-70
2023/07/06 03:03:47;;;;;;;6.05;1.48;;;;;;;15.62;100.00;99789.00;5041926;28;20029;-71
2023/07/06 03:06:12;;;;;;;5.70;1.58;;;;;;;15.74;100.00;99789.69;5059447;28;20036;-71
2023/07/06 03:08:38;;;;;;;6.80;1.55;;;;;;;15.55;100.00;99791.09;5057844;28;20044;-70
2023/07/06 03:11:04;;;;;;;6.22;1.35;;;;;;;15.64;100.00;99792.28;5024903;28;20032;-69
2023/07/06 03:13:31;;;;;;;3.95;1.38;;;;;;;15.66;100.00;99771.13;5044030;28;20032;-70
2023/07/06 03:15:57;;;;;;;5.80;1.30;;;;;;;15.35;100.00;99757.28;5062969;28;20104;-70
2023/07/06 03:18:26;;;;;;;6.15;1.40;;;;;;;15.45;100.00;99762.81;5045242;28;20028;-69
2023/07/06 03:20:52;;;;;;;3.03;1.25;;;;;;;15.52;100.00;99763.41;5046421;28;20124;-70
2023/07/06 03:23:18;;;;;;;3.35;1.20;;;;;;;15.51;100.00;99733.88;5064018;28;20092;-70
2023/07/06 03:25:44;;;;;;;4.38;1.15;;;;;;;15.54;100.00;99737.97;5063465;28;20025;-69
2023/07/06 03:28:09;;;;;;;5.95;1.58;;;;;;;15.77;100.00;99731.41;5044034;28;20031;-69
2023/07/06 03:30:35;;;;;;;5.18;1.02;;;;;;;15.60;100.00;99729.63;5061266;28;20037;-69
2023/07/06 03:33:00;;;;;;;5.82;1.10;;;;;;;15.59;100.00;99705.44;5060701;28;20024;-69
2023/07/06 03:35:28;;;;;;;5.32;1.50;;;;;;;15.58;100.00;99682.13;5060144;28;20529;-68
2023/07/06 03:37:58;;;;;;;4.53;1.05;;;;;;;15.58;100.00;99652.31;5025204;28;20467;-69
2023/07/06 03:40:27;;;;;;;6.65;1.10;;;;;;;15.60;100.00;99674.56;5059064;28;20563;-68
2023/07/06 03:42:56;;;;;;;4.35;1.27;;;;;;;15.49;100.00;99668.22;5041533;28;20071;-69
2023/07/06 03:45:22;;;;;;;6.55;1.58;;;;;;;16.13;100.00;99670.06;5042245;28;20037;-70
2023/07/06 03:47:50;;;;;;;8.18;1.40;;;;;;;16.29;100.00;99641.06;5041303;28;20025;-69
2023/07/06 03:50:17;;;;;;;11.82;1.95;;;;;;;16.63;100.00;99649.63;5041624;28;20120;-70
2023/07/06 03:52:44;;;;;;;14.68;1.88;;;;;;;16.74;100.00;99640.41;5057383;28;20048;-70
2023/07/06 03:55:17;;;;;;;17.80;2.13;;;;;;;16.83;100.00;99621.72;5054712;28;20029;-70
2023/07/06 03:57:45;;;;;;;15.50;1.70;;;;;;;17.03;100.00;99639.94;5056732;28;20055;-70
2023/07/06 04:00:22;;;;;;;18.95;2.30;;;;;;;17.14;100.00;99636.16;5056202;28;20031;-70
2023/07/06 04:02:56;;;;;;;8.27;1.20;;;;;;;17.25;100.00;99639.69;5058085;28;20025;-70
2023/07/06 04:05:24;;;;;;;12.53;1.90;;;;;;;17.38;100.00;99631.81;5057085;28;20048;-70
2023/07/06 04:07:52;;;;;;;10.55;1.80;;;;;;;17.48;100.00;99628.28;5057862;28;20029;-70
2023/07/06 04:10:22;;;;;;;11.15;1.67;;;;;;;17.38;100.00;99622.81;5058284;28;20136;-70
2023/07/06 04:12:49;;;;;;;15.52;1.88;;;;;;;17.53;100.00;99622.00;5058423;28;20040;-70
2023/07/06 04:15:18;;;;;;;17.20;2.00;;;;;;;17.65;100.00;99627.97;5056524;28;20046;-70
2023/07/06 04:17:47;;;;;;;14.98;2.40;;;;;;;17.62;100.00;99628.53;5058378;28;20035;-70
2023/07/06 04:20:23;;;;;;;12.20;1.52;;;;;;;17.72;100.00;99655.72;5038476;28;20094;-70
2023/07/06 04:22:51;;;;;;;9.65;1.73;;;;;;;17.79;100.00;99648.09;5059176;28;20028;-71
2023/07/06 04:25:19;;;;;;;9.60;1.40;;;;;;;17.79;100.00;99674.50;5061554;28;20116;-71
2023/07/06 04:27:46;;;;;;;8.73;1.23;;;;;;;17.80;100.00;99678.84;5062971;28;20066;-70
2023/07/06 04:30:12;;;;;;;10.30;1.17;;;;;;;17.85;100.00;99689.75;5061647;28;20097;-70
2023/07/06 04:32:38;;;;;;;9.82;1.13;;;;;;;17.86;100.00;99701.44;5062382;28;20052;-70
2023/07/06 04:35:05;;;;;;;5.28;1.10;;;;;;;17.93;100.00;99718.28;5043501;28;20032;-70
2023/07/06 04:37:31;;;;;;;4.25;1.13;;;;;;;17.81;100.00;99733.00;5062407;28;20058;-71
2023/07/06 04:39:57;;;;;;;7.72;1.10;;;;;;;17.88;100.00;99754.50;5063721;28;20063;-70
2023/07/06 04:42:27;;;;;;;5.00;1.13;;;;;;;17.72;100.00;99767.25;5063021;28;20496;-71
2023/07/06 04:44:53;;;;;;;3.38;0.90;;;;;;;17.77;100.00;99796.41;5027442;28;20051;-71
2023/07/06 04:47:23;;;;;;;3.92;1.20;;;;;;;17.76;100.00;99811.91;5056537;28;20082;-71
2023/07/06 04:49:49;;;;;;;6.32;1.02;;;;;;;17.62;100.00;99805.34;5048965;28;20112;-71
2023/07/06 04:52:15;;;;;;;5.45;1.05;;;;;;;17.77;100.00;99846.19;5046715;28;20036;-71
2023/07/06 04:54:41;;;;;;;3.63;1.00;;;;;;;17.67;100.00;99857.03;5045931;28;20035;-72
2023/07/06 04:57:07;;;;;;;7.10;1.00;;;;;;;17.68;100.00;99866.84;5064951;28;20084;-71
2023/07/06 04:59:33;;;;;;;7.90;1.13;;;;;;;17.64;100.00;99873.06;5045849;28;20093;-71
2023/07/06 05:01:59;;;;;;;3.40;1.10;;;;;;;17.59;100.00;99885.59;5060683;28;20057;-73
2023/07/06 05:04:25;;;;;;;7.07;1.33;;;;;;;17.54;100.00;99901.06;5062001;28;20033;-71
2023/07/06 05:06:50;;;;;;;5.95;1.30;;;;;;;17.54;100.00;99906.50;5044941;28;20067;-71
2023/07/06 05:09:16;;;;;;;6.65;1.30;;;;;;;17.46;100.00;99920.63;5060852;28;20100;-71
2023/07/06 05:11:41;;;;;;;5.07;1.50;;;;;;;17.44;100.00;99922.78;5060512;28;20025;-71
2023/07/06 05:14:07;;;;;;;7.68;1.55;;;;;;;17.36;100.00;99927.66;5042510;28;20049;-71
2023/07/06 05:16:32;;;;;;;6.60;1.30;;;;;;;17.41;100.00;99942.34;5060547;28;20029;-71
2023/07/06 05:18:58;;;;;;;3.78;1.80;;;;;;;17.45;100.00;99951.59;5042978;28;20530;-71
2023/07/06 05:21:24;;;;;;;6.75;1.60;;;;;;;17.50;100.00;99973.41;5042791;28;20055;-71
2023/07/06 05:23:50;;;;;;;7.53;1.65;;;;;;;17.48;100.00;99979.13;5060390;28;20033;-70
2023/07/06 05:26:17;;;;;;;9.18;1.50;;;;;;;17.50;100.00;99987.81;5043314;28;20048;-73
2023/07/06 05:28:42;;;;;;;6.47;1.65;;;;;;;17.50;100.00;100004.13;5044301;28;20033;-72
2023/07/06 05:31:08;;;;;;;7.10;1.70;;;;;;;17.59;100.00;100001.75;5028164;28;20043;-73
2023/07/06 05:33:33;;;;;;;9.18;1.70;;;;;;;17.61;100.00;100014.00;5059611;28;20036;-74
2023/07/06 05:35:59;;;;;;;7.13;1.90;;;;;;;17.47;100.00;100022.88;5026380;28;20055;-74
2023/07/06 05:38:25;;;;;;;7.43;1.50;;;;;;;17.53;100.00;100024.56;5043203;28;20029;-74
2023/07/06 05:40:50;;;;;;;7.25;1.42;;;;;;;17.58;100.00;100035.44;5061011;28;20025;-74
2023/07/06 05:43:21;;;;;;;8.45;1.50;;;;;;;17.57;100.00;100044.69;5026464;28;20113;-73
2023/07/06 05:45:47;;;;;;;6.20;1.35;;;;;;;17.67;100.00;100054.81;5060176;28;20407;-74
2023/07/06 05:48:13;;;;;;;7.47;1.40;;;;;;;17.73;100.00;100040.97;5042553;28;20033;-73
2023/07/06 05:50:39;;;;;;;7.53;1.25;;;;;;;17.94;100.00;100073.75;5059453;28;20032;-73
2023/07/06 05:53:06;;;;;;;5.50;1.30;;;;;;;18.09;100.00;100049.31;5043909;28;20029;-74
2023/07/06 05:55:31;;;;;;;6.75;1.20;;;;;;;18.33;100.00;100086.97;5044609;28;20028;-74
2023/07/06 05:57:57;;;;;;;4.03;1.20;;;;;;;18.42;100.00;100083.47;5059996;28;20144;-74
2023/07/06 06:00:22;;;;;;;3.78;1.30;;;;;;;18.57;100.00;100093.56;5060993;28;20037;-74
2023/07/06 06:02:48;;;;;;;5.93;1.40;;;;;;;18.56;100.00;100094.66;5062252;28;20021;-74
2023/07/06 06:05:15;;;;;;;5.60;1.60;;;;;;;18.45;100.00;100085.66;5058600;28;20111;-74
2023/07/06 06:07:43;;;;;;;6.40;1.60;;;;;;;18.56;100.00;100111.00;5060411;28;20414;-74
2023/07/06 06:10:10;;;;;;;8.10;1.70;;;;;;;18.52;100.00;100115.34;5045269;28;20057;-74
2023/07/06 06:12:36;;;;;;;10.15;2.30;;;;;;;18.27;100.00;100121.53;5018515;28;20099;-73
2023/07/06 06:15:02;;;;;;;10.20;1.58;;;;;;;18.28;100.00;100129.44;5010862;28;20031;-74
2023/07/06 06:17:28;;;;;;;15.18;2.25;;;;;;;18.29;100.00;100128.34;5039928;28;20035;-74
2023/07/06 06:19:54;;;;;;;9.30;1.48;;;;;;;18.46;100.00;100136.31;5061730;28;20048;-74
2023/07/06 06:22:20;;;;;;;14.20;1.58;;;;;;;18.75;100.00;100120.34;5042997;28;20021;-74
2023/07/06 06:24:45;;;;;;;6.03;1.85;;;;;;;18.94;100.00;100152.50;5060916;28;20040;-74
2023/07/06 06:27:14;;;;;;;7.57;1.55;;;;;;;19.02;100.00;100155.53;5061033;28;20025;-74
2023/07/06 06:29:42;;;;;;;6.75;1.10;;;;;;;18.99;100.00;100160.72;5043004;28;20104;-74
2023/07/06 06:32:09;;;;;;;9.93;1.40;;;;;;;18.92;100.00;100171.06;5059499;28;20092;-74
2023/07/06 06:34:35;;;;;;;8.60;1.50;;;;;;;18.93;100.00;100172.69;5041418;28;20025;-74
2023/07/06 06:37:03;;;;;;;8.70;1.73;;;;;;;18.96;100.00;100178.44;5060101;28;20028;-75
2023/07/06 06:39:29;;;;;;;6.22;1.52;;;;;;;19.06;100.00;100168.63;5042955;28;20495;-74
2023/07/06 06:41:55;;;;;;;6.90;1.35;;;;;;;19.18;100.00;100188.28;5039809;28;20029;-74
2023/07/06 06:44:20;;;;;;;7.88;1.20;;;;;;;19.29;100.00;100192.66;5058144;28;20053;-74
2023/07/06 06:46:47;;;;;;;5.10;0.85;;;;;;;19.08;100.00;100191.81;5041705;28;21024;-75
2023/07/06 06:49:13;;;;;;;4.75;0.77;;;;;;;19.08;100.00;100194.56;5043745;28;20511;-75
2023/07/06 06:51:39;;;;;;;4.25;1.05;;;;;;;18.87;100.00;100184.69;5061375;28;20037;-74
2023/07/06 06:54:05;;;;;;;2.42;0.88;;;;;;;19.06;100.00;100212.25;5043670;28;20036;-75
2023/07/06 06:56:30;;;;;;;7.15;1.10;;;;;;;19.01;100.00;100192.09;5043286;28;20036;-74
2023/07/06 06:58:56;;;;;;;4.10;1.20;;;;;;;19.12;100.00;100212.00;5043686;28;20105;-75
2023/07/06 07:01:22;;;;;;;9.07;1.42;;;;;;;19.12;100.00;100217.47;5043138;28;20388;-74
2023/07/06 07:03:48;;;;;;;6.88;1.40;;;;;;;19.18;100.00;100223.75;5042796;28;20032;-74
2023/07/06 07:06:14;;;;;;;10.18;1.45;;;;;;;19.17;100.00;100219.34;5059094;28;20025;-75
2023/07/06 07:08:44;;;;;;;4.68;1.20;;;;;;;19.07;100.00;100228.34;5043367;28;20071;-74
2023/07/06 07:11:11;;;;;;;7.13;1.50;;;;;;;19.19;100.00;100231.66;5054398;28;20033;-74
2023/07/06 07:13:40;;;;;;;7.63;2.00;;;;;;;19.23;100.00;100221.00;5059140;28;20071;-75
2023/07/06 07:16:06;;;;;;;8.15;1.58;;;;;;;19.30;100.00;100229.75;5058799;28;20067;-74
2023/07/06 07:18:33;;;;;;;9.80;1.85;;;;;;;19.34;100.00;100230.06;5037603;28;20032;-75
2023/07/06 07:21:01;;;;;;;7.80;1.65;;;;;;;19.28;100.00;100236.59;5053959;28;20029;-74
2023/07/06 07:23:35;;;;;;;9.23;1.38;;;;;;;19.37;100.00;100240.38;5052507;28;20125;-74
2023/07/06 07:26:03;;;;;;;7.80;1.67;;;;;;;19.36;100.00;100236.84;5054081;28;20029;-74
2023/07/06 07:28:29;;;;;;;12.13;1.95;;;;;;;19.45;100.00;100256.25;5052723;28;20036;-74
2023/07/06 07:30:59;;;;;;;10.63;1.65;;;;;;;19.62;100.00;100253.25;5053881;28;20487;-74
2023/07/06 07:33:28;;;;;;;7.50;1.80;;;;;;;19.66;100.00;100259.81;5056115;28;20063;-74
2023/07/06 07:35:59;;;;;;;8.52;1.77;;;;;;;19.53;100.00;100246.69;5058106;28;20028;-74
2023/07/06 07:38:24;;;;;;;13.75;2.10;;;;;;;19.60;100.00;100264.44;5058300;28;20478;-74
2023/07/06 07:40:57;;;;;;;7.78;1.50;;;;;;;19.91;100.00;100275.38;5061062;28;20060;-74
2023/07/06 07:43:29;;;;;;;8.73;1.90;;;;;;;20.19;100.00;100282.19;5061096;28;20049;-74
2023/07/06 07:45:56;;;;;;;6.68;1.75;;;;;;;20.24;100.00;100284.91;5060547;28;20059;-74
2023/07/06 07:48:25;;;;;;;7.55;1.55;;;;;;;20.16;100.00;100278.09;5060641;28;20068;-74
2023/07/06 07:51:15;;;;;;;6.72;1.65;;;;;;;20.23;100.00;100282.44;5042975;28;20036;-74
2023/07/06 07:53:41;;;;;;;7.60;1.58;;;;;;;20.47;100.00;100294.44;5018250;28;20056;-73
2023/07/06 07:56:07;;;;;;;8.57;1.75;;;;;;;20.53;100.00;100287.03;5018811;28;20101;-74
2023/07/06 07:58:36;;;;;;;12.80;1.98;;;;;;;20.63;100.00;100297.97;5002797;28;20034;-74
2023/07/06 08:01:05;;;;;;;13.63;2.33;;;;;;;20.66;100.00;100294.66;5002660;28;20033;-75
2023/07/06 08:03:32;;;;;;;9.13;2.30;;;;;;;20.79;100.00;100299.53;5021494;28;20034;-75
2023/07/06 08:06:02;;;;;;;7.80;1.80;;;;;;;20.84;100.00;100298.69;5003784;28;20048;-75
2023/07/06 08:08:31;;;;;;;9.30;2.10;;;;;;;20.73;100.00;100299.81;5002209;28;20042;-74
2023/07/06 08:11:04;;;;;;;11.38;1.80;;;;;;;20.46;100.00;100309.16;5015494;28;20526;-74
2023/07/06 08:13:31;;;;;;;7.68;1.80;;;;;;;20.27;100.00;100316.34;5000442;28;20066;-74
2023/07/06 08:15:57;;;;;;;8.88;1.90;;;;;;;20.25;100.00;100318.50;4983332;28;20053;-74
2023/07/06 08:18:24;;;;;;;6.40;2.00;;;;;;;20.14;100.00;100313.06;5018171;28;20586;-74
2023/07/06 08:20:53;;;;;;;8.15;1.98;;;;;;;20.32;100.00;100329.97;5001931;28;20060;-74
2023/07/06 08:23:20;;;;;;;5.93;1.52;;;;;;;20.16;100.00;100331.91;5004619;28;20040;-75
2023/07/06 08:25:46;;;;;;;2.55;1.00;;;;;;;20.19;100.00;100343.09;5044632;28;20043;-74
2023/07/06 08:28:12;;;;;;;7.32;1.20;;;;;;;20.53;100.00;100341.72;5063172;28;20096;-74
2023/07/06 08:30:40;;;;;;;7.72;1.58;;;;;;;20.95;99.22;100340.50;5046664;28;20056;-74
2023/07/06 08:33:09;;;;;;;6.97;1.38;;;;;;;21.30;98.74;100347.75;5063952;28;20033;-75
2023/07/06 08:35:40;;;;;;;6.20;1.15;;;;;;;21.15;99.16;100354.09;5063328;28;20032;-75
2023/07/06 08:38:05;;;;;;;4.63;0.85;;;;;;;20.78;98.56;100354.50;5059652;28;20047;-75
2023/07/06 08:40:32;;;;;;;4.07;0.80;;;;;;;20.51;97.41;100355.66;5046102;28;20025;-75
2023/07/06 08:43:00;;;;;;;3.03;0.80;;;;;;;20.46;97.77;100366.56;5046332;28;20033;-74
2023/07/06 08:45:41;;;;;;;4.47;1.27;;;;;;;20.33;97.85;100367.13;5064821;28;20387;-75
2023/07/06 08:48:13;;;;;;;3.20;1.08;;;;;;;20.53;97.65;100369.03;5045796;28;20024;-74
2023/07/06 08:50:42;;;;;;;8.20;1.40;;;;;;;20.50;97.50;100375.88;5045731;28;20391;-75
2023/07/06 08:53:14;;;;;;;9.38;1.42;;;;;;;20.59;97.55;100370.66;5043988;28;20029;-74
2023/07/06 08:55:43;;;;;;;4.47;1.15;;;;;;;20.49;97.91;100379.69;5063164;28;20017;-75
2023/07/06 08:58:19;;;;;;;3.60;1.02;;;;;;;20.50;97.91;100391.44;5063551;28;20032;-75
2023/07/06 09:00:44;;;;;;;4.95;1.20;;;;;;;20.56;96.64;100360.28;5063969;28;20021;-74
2023/07/06 09:03:13;;;;;;;3.90;1.42;;;;;;;20.46;97.52;100391.16;5063942;28;20328;-75
2023/07/06 09:05:48;;;;;;;5.20;1.15;;;;;;;20.11;98.84;100400.19;5046457;28;20040;-74
2023/07/06 09:08:17;;;;;;;8.90;1.20;;;;;;;19.49;100.00;100418.31;5045294;28;20029;-75
2023/07/06 09:10:43;;;;;;;8.43;1.17;;;;;;;18.98;100.00;100421.66;5062620;28;20021;-75
2023/07/06 09:13:19;;;;;;;10.35;1.20;;;;;;;18.86;100.00;100431.13;5062302;28;20025;-75
2023/07/06 09:15:48;;;;;;;7.03;1.20;;;;;;;18.50;100.00;100428.09;5061450;28;20049;-75
2023/07/06 09:18:15;;;;;;;7.00;1.00;;;;;;;18.28;100.00;100442.66;5045283;28;20208;-75
2023/07/06 09:20:44;;;;;;;4.45;0.90;;;;;;;18.19;100.00;100446.94;5060613;28;20040;-75
2023/07/06 09:23:13;;;;;;;7.53;1.02;;;;;;;18.17;100.00;100440.91;5058172;28;20036;-75
2023/07/06 09:25:44;;;;;;;8.55;1.38;;;;;;;18.20;100.00;100448.56;5022286;28;20109;-74
2023/07/06 09:28:23;;;;;;;10.88;1.52;;;;;;;18.30;100.00;100454.09;5062494;28;20381;-74
2023/07/06 09:31:04;;;;;;;7.38;1.35;;;;;;;18.35;100.00;100453.34;5043665;28;20032;-74
2023/07/06 09:33:31;;;;;;;7.90;1.20;;;;;;;18.45;100.00;100452.59;5059873;28;20036;-74
2023/07/06 09:35:57;;;;;;;7.22;1.10;;;;;;;18.68;100.00;100459.59;5043131;28;20020;-74
2023/07/06 09:38:27;;;;;;;7.22;1.20;;;;;;;18.81;100.00;100469.22;5064024;28;20059;-74
2023/07/06 09:40:53;;;;;;;6.03;1.40;;;;;;;18.76;100.00;100473.56;5046836;28;20029;-74
2023/07/06 09:43:25;;;;;;;4.95;1.30;;;;;;;18.75;100.00;100480.13;5043764;28;20126;-74
2023/07/06 09:45:52;;;;;;;5.13;1.13;;;;;;;18.54;100.00;100456.47;5063045;28;20031;-74
2023/07/06 09:48:31;;;;;;;6.47;1.50;;;;;;;18.62;100.00;100475.09;5045677;28;20024;-74
2023/07/06 09:51:11;;;;;;;7.00;1.58;;;;;;;18.52;100.00;100481.25;5046049;28;20021;-75
2023/07/06 09:54:05;;;;;;;4.63;1.42;;;;;;;18.47;100.00;100469.50;5064586;28;20509;-74
2023/07/06 09:56:30;;;;;;;6.78;1.50;;;;;;;18.50;100.00;100479.88;5065301;28;20033;-74
2023/07/06 09:58:58;;;;;;;7.57;1.60;;;;;;;18.49;100.00;100483.69;5062656;28;20036;-74
2023/07/06 10:01:42;;;;;;;6.00;1.73;;;;;;;18.45;100.00;100493.47;5063188;28;20053;-74
2023/07/06 10:04:14;;;;;;;6.68;1.60;;;;;;;18.47;100.00;100499.47;5060657;28;20029;-74
2023/07/06 10:06:56;;;;;;;10.65;1.98;;;;;;;18.52;100.00;100497.63;5041998;28;20168;-75
2023/07/06 10:09:31;;;;;;;9.05;2.00;;;;;;;18.57;100.00;100504.19;5060998;28;20148;-74
2023/07/06 10:12:01;;;;;;;;;;;;;;;18.89;100.00;100512.38;5059020;28;20089;-74
2023/07/06 10:14:47;;;;;;;5.78;1.70;;;;;;;19.15;100.00;100514.19;5062174;28;19912;-74
2023/07/06 10:17:22;;;;;;;5.43;1.65;;;;;;;19.20;100.00;100522.44;5044123;28;20032;-74
2023/07/06 10:20:21;;;;;;;3.33;1.25;;;;;;;19.41;100.00;100526.09;5061915;28;20020;-74
2023/07/06 10:23:49;;;;;;;7.30;1.90;;;;;;;19.45;100.00;100532.66;5061623;28;20544;-75
2023/07/06 10:26:32;;;;;;;5.15;1.65;;;;;;;19.23;100.00;100546.41;5007955;28;20033;-74
2023/07/06 10:29:11;;;;;;;3.28;1.38;;;;;;;19.22;100.00;100544.78;5061301;28;20028;-75
2023/07/06 10:31:46;;;;;;;8.27;1.55;;;;;;;19.39;100.00;100549.25;5044330;28;20021;-75
2023/07/06 10:34:38;;;;;;;5.70;1.70;;;;;;;19.38;100.00;100553.91;5061865;28;20025;-74
2023/07/06 10:37:05;;;;;;;6.82;1.60;;;;;;;19.42;100.00;100562.38;5058745;28;20021;-74
2023/07/06 10:39:31;;;;;;;6.75;1.58;;;;;;;19.61;100.00;100568.22;5036611;28;20033;-74
2023/07/06 10:42:01;;;;;;;5.07;1.58;;;;;;;19.78;100.00;100559.88;5036473;28;20387;-74
2023/07/06 10:44:40;;;;;;;7.18;1.48;;;;;;;19.84;100.00;100565.09;5036733;28;20047;-74
2023/07/06 10:47:07;;;;;;;6.97;1.45;;;;;;;19.55;100.00;100578.28;5038871;28;20094;-74
2023/07/06 10:50:05;;;;;;;6.03;1.38;;;;;;;19.46;100.00;100575.22;5058500;28;20025;-74
2023/07/06 10:52:40;;;;;;;8.07;1.60;;;;;;;19.09;100.00;100591.59;5060043;28;20280;-74
2023/07/06 10:55:11;;;;;;;8.52;1.55;;;;;;;18.80;100.00;100571.19;5042245;28;20020;-74
2023/07/06 10:57:43;;;;;;;5.32;1.55;;;;;;;18.81;100.00;100590.03;5039421;28;20035;-75
2023/07/06 11:00:20;;;;;;;6.13;1.20;;;;;;;18.64;100.00;100595.56;5058830;28;20028;-75
2023/07/06 11:02:46;;;;;;;4.90;1.02;;;;;;;18.60;100.00;100605.31;5043879;28;20036;-75
2023/07/06 11:05:32;;;;;;;5.47;1.50;;;;;;;18.46;100.00;100585.84;5044713;28;20029;-76
2023/07/06 11:07:59;;;;;;;7.53;1.35;;;;;;;18.63;100.00;100618.44;5045832;28;20033;-74
2023/07/06 11:10:44;;;;;;;4.15;1.27;;;;;;;18.51;100.00;100615.06;5062420;28;20025;-75
2023/07/06 11:13:10;;;;;;;;;;;;;;;18.57;100.00;100614.00;5045788;28;20055;-74
2023/07/06 11:15:35;;;;;;;5.47;1.50;;;;;;;18.53;100.00;100623.78;5062585;28;19913;-75
2023/07/06 11:18:37;;;;;;;9.15;1.55;;;;;;;18.66;100.00;100620.63;5044500;28;20035;-75
2023/07/06 11:21:17;;;;;;;5.90;1.50;;;;;;;18.66;100.00;100625.28;5058693;28;20056;-74
2023/07/06 11:23:48;;;;;;;7.03;1.33;;;;;;;18.58;100.00;100632.00;5042940;28;20043;-75
2023/07/06 11:26:40;;;;;;;5.47;1.40;;;;;;;18.65;100.00;100648.97;5061589;28;20053;-74
2023/07/06 11:29:08;;;;;;;6.53;1.40;;;;;;;18.50;100.00;100627.00;5042084;28;20056;-74
2023/07/06 11:31:49;;;;;;;7.68;1.70;;;;;;;18.61;100.00;100647.00;5059198;28;20029;-74